Time;durP1;ratioP1;P1;durP2;ratioP2;P2;SDS_P1;SDS_P2;PMS_P1;PMS_P2;Temp;Humidity;BMP_temperature;BMP_pressure;BME280_temperature;BME280_humidity;BME280_pressure;Samples;Min_cycle;Max_cycle;Signal;HPM_P1;HPM_P2
2023/09/11 00:02:18;;;;;;;12.07;11.00;;;;;;;;;;5072928;28;20439;-71
2023/09/11 00:04:45;;;;;;;11.43;10.37;;;;;;;;;;5072820;28;20527;-71
2023/09/11 00:07:13;;;;;;;11.20;9.97;;;;;;;;;;5073133;28;20873;-71
2023/09/11 00:09:40;;;;;;;11.60;10.63;;;;;;;;;;5073071;28;20493;-71
2023/09/11 00:12:07;;;;;;;10.17;9.33;;;;;;;;;;5072887;28;20526;-71
2023/09/11 00:14:34;;;;;;;12.47;10.97;;;;;;;;;;5072872;28;20443;-71
2023/09/11 00:17:03;;;;;;;12.00;11.07;;;;;;;;;;5072711;28;20518;-71
2023/09/11 00:19:30;;;;;;;12.03;10.80;;;;;;;;;;5072979;28;20536;-71
2023/09/11 00:21:56;;;;;;;11.27;10.40;;;;;;;;;;5072848;28;20873;-71
2023/09/11 00:24:23;;;;;;;11.33;10.33;;;;;;;;;;5072829;28;20450;-71
2023/09/11 00:26:50;;;;;;;12.57;11.37;;;;;;;;;;5072763;28;20486;-71
2023/09/11 00:29:17;;;;;;;11.40;10.33;;;;;;;;;;5072483;28;20517;-71
2023/09/11 00:31:44;;;;;;;11.27;10.13;;;;;;;;;;5072605;28;20450;-71
2023/09/11 00:34:12;;;;;;;11.70;10.60;;;;;;;;;;5072621;28;20443;-71
2023/09/11 00:36:39;;;;;;;11.33;10.40;;;;;;;;;;5072830;28;20915;-71
2023/09/11 00:39:06;;;;;;;12.30;11.20;;;;;;;;;;5072588;28;20447;-71
2023/09/11 00:41:33;;;;;;;13.03;11.93;;;;;;;;;;5072589;28;20534;-71
2023/09/11 00:44:00;;;;;;;11.30;10.30;;;;;;;;;;5072506;28;20450;-71
2023/09/11 00:46:27;;;;;;;12.10;11.10;;;;;;;;;;5072508;28;20451;-71
2023/09/11 00:48:55;;;;;;;12.43;11.23;;;;;;;;;;5072650;28;20443;-71
2023/09/11 00:51:23;;;;;;;11.57;10.67;;;;;;;;;;5072557;28;20450;-71
2023/09/11 00:53:51;;;;;;;11.33;10.43;;;;;;;;;;5072503;28;20443;-71
2023/09/11 00:56:18;;;;;;;11.47;10.40;;;;;;;;;;5073486;28;20475;-71
2023/09/11 00:58:45;;;;;;;12.07;10.70;;;;;;;;;;5076114;28;20557;-71
2023/09/11 01:01:12;;;;;;;13.30;12.10;;;;;;;;;;5076326;28;20534;-71
2023/09/11 01:03:39;;;;;;;12.63;11.33;;;;;;;;;;5075951;28;21008;-71
2023/09/11 01:06:06;;;;;;;12.40;11.20;;;;;;;;;;5076030;28;20537;-71
2023/09/11 01:08:35;;;;;;;13.30;12.10;;;;;;;;;;5075958;28;20509;-71
2023/09/11 01:11:02;;;;;;;13.10;11.93;;;;;;;;;;5075999;28;20539;-71
2023/09/11 01:13:29;;;;;;;12.20;11.10;;;;;;;;;;5075787;28;20455;-71
2023/09/11 01:16:00;;;;;;;12.13;11.13;;;;;;;;;;5075984;28;20483;-71
2023/09/11 01:18:30;;;;;;;13.63;12.33;;;;;;;;;;5075906;28;20443;-71
2023/09/11 01:21:01;;;;;;;11.63;10.53;;;;;;;;;;5075737;28;20449;-71
2023/09/11 01:23:47;;;;;;;12.63;11.43;;;;;;;;;;5075789;28;20458;-71
2023/09/11 01:26:26;;;;;;;12.27;11.17;;;;;;;;;;5075854;28;20879;-71
2023/09/11 01:29:04;;;;;;;13.23;11.93;;;;;;;;;;5075495;28;20550;-70
2023/09/11 01:31:33;;;;;;;11.40;10.50;;;;;;;;;;5075660;28;20867;-71
2023/09/11 01:34:01;;;;;;;12.33;11.23;;;;;;;;;;5075406;28;20922;-71
2023/09/11 01:36:28;;;;;;;12.47;11.27;;;;;;;;;;5075287;28;20489;-71
2023/09/11 01:38:56;;;;;;;11.80;10.70;;;;;;;;;;5075521;28;20447;-71
2023/09/11 01:41:26;;;;;;;12.07;10.87;;;;;;;;;;5075506;28;20444;-70
2023/09/11 01:43:55;;;;;;;12.00;11.00;;;;;;;;;;5075786;28;20865;-71
2023/09/11 01:46:23;;;;;;;13.37;12.00;;;;;;;;;;5075220;28;20543;-71
2023/09/11 01:48:52;;;;;;;12.20;11.10;;;;;;;;;;5075147;28;20448;-71
2023/09/11 01:51:19;;;;;;;11.63;10.70;;;;;;;;;;5075376;28;20852;-71
2023/09/11 01:53:47;;;;;;;12.87;11.57;;;;;;;;;;5075285;28;20450;-70
2023/09/11 01:56:14;;;;;;;12.30;11.30;;;;;;;;;;5075079;28;20483;-71
2023/09/11 01:58:41;;;;;;;12.13;11.13;;;;;;;;;;5075094;28;20443;-71
2023/09/11 02:01:08;;;;;;;13.70;12.50;;;;;;;;;;5074977;28;20855;-70
2023/09/11 02:03:36;;;;;;;13.67;12.40;;;;;;;;;;5074879;28;20450;-70
2023/09/11 02:06:03;;;;;;;12.67;11.57;;;;;;;;;;5075101;28;20534;-71
2023/09/11 02:08:30;;;;;;;11.40;10.50;;;;;;;;;;5074072;28;20447;-71
2023/09/11 02:10:57;;;;;;;12.30;11.20;;;;;;;;;;5074873;28;20999;-71
2023/09/11 02:13:24;;;;;;;13.30;11.97;;;;;;;;;;5074827;28;20444;-70
2023/09/11 02:15:51;;;;;;;12.27;11.07;;;;;;;;;;5074559;28;20471;-70
2023/09/11 02:18:19;;;;;;;11.97;10.77;;;;;;;;;;5074830;28;20447;-71
2023/09/11 02:20:47;;;;;;;12.60;11.47;;;;;;;;;;5074756;28;20470;-71
2023/09/11 02:23:15;;;;;;;12.53;11.33;;;;;;;;;;5074551;28;21048;-71
2023/09/11 02:25:42;;;;;;;13.57;12.47;;;;;;;;;;5074559;28;20486;-70
2023/09/11 02:28:09;;;;;;;12.67;11.60;;;;;;;;;;5074249;28;20501;-70
2023/09/11 02:30:36;;;;;;;13.57;11.40;;;;;;;;;;5074367;28;20853;-71
2023/09/11 02:33:03;;;;;;;12.03;10.90;;;;;;;;;;5074446;28;20806;-71
2023/09/11 02:35:31;;;;;;;12.90;11.80;;;;;;;;;;5074403;28;20447;-71
2023/09/11 02:37:59;;;;;;;13.87;12.47;;;;;;;;;;5074279;28;20505;-70
2023/09/11 02:40:26;;;;;;;12.17;11.07;;;;;;;;;;5074293;28;20534;-70
2023/09/11 02:42:53;;;;;;;12.50;11.30;;;;;;;;;;5074045;28;20455;-70
2023/09/11 02:45:20;;;;;;;12.47;11.27;;;;;;;;;;5074292;28;20538;-70
2023/09/11 02:47:47;;;;;;;15.53;12.27;;;;;;;;;;5074191;28;20451;-70
2023/09/11 02:50:14;;;;;;;13.27;11.97;;;;;;;;;;5074121;28;20798;-70
2023/09/11 02:52:41;;;;;;;13.63;12.20;;;;;;;;;;5074008;28;20444;-71
2023/09/11 02:55:11;;;;;;;13.40;12.20;;;;;;;;;;5073816;28;20942;-71
2023/09/11 02:57:38;;;;;;;12.10;11.00;;;;;;;;;;5073645;28;20543;-71
2023/09/11 03:00:06;;;;;;;12.30;11.23;;;;;;;;;;5073725;28;20958;-70
2023/09/11 03:02:33;;;;;;;11.80;10.70;;;;;;;;;;5073951;28;20834;-70
2023/09/11 03:05:00;;;;;;;12.33;11.10;;;;;;;;;;5073896;28;20807;-71
2023/09/11 03:07:27;;;;;;;12.60;11.50;;;;;;;;;;5073573;28;20934;-71
2023/09/11 03:09:54;;;;;;;11.97;10.97;;;;;;;;;;5073600;28;20444;-71
2023/09/11 03:12:22;;;;;;;13.30;12.10;;;;;;;;;;5073503;28;20790;-70
2023/09/11 03:14:52;;;;;;;11.80;10.70;;;;;;;;;;5073663;28;20531;-71
2023/09/11 03:17:18;;;;;;;13.47;11.93;;;;;;;;;;5073733;28;20838;-71
2023/09/11 03:19:45;;;;;;;12.10;10.90;;;;;;;;;;5073358;28;20440;-71
2023/09/11 03:22:12;;;;;;;12.00;10.87;;;;;;;;;;5073427;28;20534;-71
2023/09/11 03:24:39;;;;;;;12.73;11.63;;;;;;;;;;5073298;28;20541;-71
2023/09/11 03:27:06;;;;;;;12.13;11.03;;;;;;;;;;5073502;28;20889;-70
2023/09/11 03:29:34;;;;;;;13.73;12.33;;;;;;;;;;5073061;28;20471;-70
2023/09/11 03:32:01;;;;;;;12.30;11.20;;;;;;;;;;5073336;28;20439;-70
2023/09/11 03:34:29;;;;;;;12.40;11.00;;;;;;;;;;5073185;28;20530;-70
2023/09/11 03:36:56;;;;;;;12.20;11.03;;;;;;;;;;5073099;28;20573;-70
2023/09/11 03:39:22;;;;;;;12.40;11.30;;;;;;;;;;5073108;28;20483;-71
2023/09/11 03:41:49;;;;;;;10.97;10.07;;;;;;;;;;5073319;28;20443;-70
2023/09/11 03:44:16;;;;;;;11.47;10.47;;;;;;;;;;5073212;28;20455;-70
2023/09/11 03:46:45;;;;;;;12.07;10.97;;;;;;;;;;5073177;28;20546;-70
2023/09/11 03:49:12;;;;;;;11.80;10.80;;;;;;;;;;5073089;28;20443;-70
2023/09/11 03:51:38;;;;;;;13.13;11.73;;;;;;;;;;5072997;28;20535;-70
2023/09/11 03:54:08;;;;;;;11.83;10.60;;;;;;;;;;5073195;28;20444;-71
2023/09/11 03:56:35;;;;;;;11.50;10.50;;;;;;;;;;5073087;28;20479;-71
2023/09/11 03:59:02;;;;;;;12.07;11.00;;;;;;;;;;5073023;28;20450;-70
2023/09/11 04:01:29;;;;;;;16.93;11.83;;;;;;;;;;5072939;28;20447;-70
2023/09/11 04:03:57;;;;;;;12.30;11.20;;;;;;;;;;5072910;28;20558;-70
2023/09/11 04:06:24;;;;;;;13.10;11.77;;;;;;;;;;5072827;28;20459;-70
2023/09/11 04:08:51;;;;;;;13.60;11.33;;;;;;;;;;5073031;28;20475;-70
2023/09/11 04:11:20;;;;;;;21.20;12.10;;;;;;;;;;5072929;28;20547;-71
2023/09/11 04:13:46;;;;;;;13.67;10.97;;;;;;;;;;5072871;28;20451;-71
2023/09/11 04:16:15;;;;;;;11.53;10.50;;;;;;;;;;5072687;28;20970;-70
2023/09/11 04:18:43;;;;;;;13.37;11.97;;;;;;;;;;5072741;28;20530;-70
2023/09/11 04:21:11;;;;;;;11.80;10.70;;;;;;;;;;5072913;28;20451;-70
2023/09/11 04:23:38;;;;;;;11.27;10.27;;;;;;;;;;5072691;28;20486;-71
2023/09/11 04:26:06;;;;;;;12.47;11.27;;;;;;;;;;5072748;28;20505;-70
2023/09/11 04:28:34;;;;;;;12.33;11.03;;;;;;;;;;5072580;28;20478;-70
2023/09/11 04:31:01;;;;;;;12.17;11.17;;;;;;;;;;5073442;28;20451;-70
2023/09/11 04:33:28;;;;;;;12.37;11.17;;;;;;;;;;5076582;28;20447;-70
2023/09/11 04:35:55;;;;;;;12.50;10.47;;;;;;;;;;5076796;28;20819;-70
2023/09/11 04:38:24;;;;;;;12.30;11.20;;;;;;;;;;5076617;28;20565;-70
2023/09/11 04:40:56;;;;;;;11.50;10.40;;;;;;;;;;5076474;28;20452;-70
2023/09/11 04:43:23;;;;;;;11.43;10.30;;;;;;;;;;5076580;28;20440;-70
2023/09/11 04:45:50;;;;;;;12.27;11.17;;;;;;;;;;5076164;28;20451;-70
2023/09/11 04:48:17;;;;;;;11.27;10.17;;;;;;;;;;5076491;28;20534;-70
2023/09/11 04:50:44;;;;;;;12.37;11.17;;;;;;;;;;5076289;28;20443;-70
2023/09/11 04:53:11;;;;;;;11.53;10.43;;;;;;;;;;5076240;28;20534;-70
2023/09/11 04:55:40;;;;;;;11.07;10.10;;;;;;;;;;5076133;28;20450;-70
2023/09/11 04:58:07;;;;;;;22.97;11.67;;;;;;;;;;5075968;28;20482;-71
2023/09/11 05:00:34;;;;;;;11.83;10.37;;;;;;;;;;5075907;28;20873;-70
2023/09/11 05:03:01;;;;;;;14.97;10.93;;;;;;;;;;5076138;28;20815;-70
2023/09/11 05:05:28;;;;;;;13.07;11.77;;;;;;;;;;5076073;28;20496;-70
2023/09/11 05:07:55;;;;;;;12.40;11.30;;;;;;;;;;5075875;28;20968;-70
2023/09/11 05:10:22;;;;;;;11.57;10.50;;;;;;;;;;5075905;28;20538;-70
2023/09/11 05:12:51;;;;;;;11.40;10.40;;;;;;;;;;5075752;28;20534;-70
2023/09/11 05:15:18;;;;;;;13.10;9.93;;;;;;;;;;5075646;28;20538;-70
2023/09/11 05:17:45;;;;;;;12.50;10.43;;;;;;;;;;5075742;28;20490;-70
2023/09/11 05:20:12;;;;;;;12.03;10.83;;;;;;;;;;5075873;28;20520;-70
2023/09/11 05:22:39;;;;;;;10.47;9.47;;;;;;;;;;5075718;28;20530;-70
2023/09/11 05:25:06;;;;;;;12.23;11.03;;;;;;;;;;5075660;28;20957;-70
2023/09/11 05:27:33;;;;;;;12.63;11.53;;;;;;;;;;5075406;28;20530;-70
2023/09/11 05:30:02;;;;;;;12.53;11.20;;;;;;;;;;5075718;28;20877;-70
2023/09/11 05:32:28;;;;;;;12.30;11.10;;;;;;;;;;5075660;28;20447;-70
2023/09/11 05:34:56;;;;;;;12.30;11.20;;;;;;;;;;5075549;28;20443;-70
2023/09/11 05:37:22;;;;;;;12.23;11.13;;;;;;;;;;5075399;28;20506;-70
2023/09/11 05:39:49;;;;;;;11.50;10.60;;;;;;;;;;5075341;28;21001;-70
2023/09/11 05:42:16;;;;;;;12.27;11.13;;;;;;;;;;5074328;28;20542;-70
2023/09/11 05:44:44;;;;;;;12.80;10.23;;;;;;;;;;5075130;28;20483;-70
2023/09/11 05:47:12;;;;;;;12.70;11.27;;;;;;;;;;5075357;28;20538;-70
2023/09/11 05:49:39;;;;;;;12.37;11.17;;;;;;;;;;5075181;28;20448;-70
2023/09/11 05:52:07;;;;;;;13.27;11.97;;;;;;;;;;5075132;28;20851;-70
2023/09/11 05:54:34;;;;;;;12.40;11.20;;;;;;;;;;5074981;28;20448;-70
2023/09/11 05:57:02;;;;;;;13.83;11.23;;;;;;;;;;5075133;28;20475;-70
2023/09/11 05:59:29;;;;;;;15.70;10.83;;;;;;;;;;5075048;28;20882;-70
2023/09/11 06:01:56;;;;;;;13.27;11.37;;;;;;;;;;5075150;28;20891;-70
2023/09/11 06:04:24;;;;;;;11.23;10.33;;;;;;;;;;5074935;28;20514;-70
2023/09/11 06:06:52;;;;;;;15.20;11.13;;;;;;;;;;5074866;28;20458;-70
2023/09/11 06:09:18;;;;;;;13.37;11.97;;;;;;;;;;5074698;28;20493;-70
2023/09/11 06:11:46;;;;;;;34.10;13.73;;;;;;;;;;5074855;28;20451;-70
2023/09/11 06:14:13;;;;;;;12.13;10.97;;;;;;;;;;5074832;28;20448;-70
2023/09/11 06:16:40;;;;;;;15.50;11.23;;;;;;;;;;5074507;28;20444;-70
2023/09/11 06:19:07;;;;;;;11.80;10.60;;;;;;;;;;5074725;28;20911;-71
2023/09/11 06:21:35;;;;;;;13.80;12.23;;;;;;;;;;5074521;28;20443;-70
2023/09/11 06:24:04;;;;;;;12.00;11.00;;;;;;;;;;5074718;28;20535;-70
2023/09/11 06:26:31;;;;;;;14.37;12.20;;;;;;;;;;5074621;28;20473;-70
2023/09/11 06:28:58;;;;;;;13.40;12.10;;;;;;;;;;5074304;28;20554;-70
2023/09/11 06:31:25;;;;;;;12.67;11.27;;;;;;;;;;5074394;28;20476;-71
2023/09/11 06:33:52;;;;;;;15.30;12.30;;;;;;;;;;5074176;28;20443;-70
2023/09/11 06:36:18;;;;;;;12.40;11.40;;;;;;;;;;5074193;28;21044;-70
2023/09/11 06:38:47;;;;;;;13.70;11.63;;;;;;;;;;5074375;28;20522;-71
2023/09/11 06:41:14;;;;;;;12.97;11.17;;;;;;;;;;5074227;28;20450;-71
2023/09/11 06:43:42;;;;;;;12.63;11.57;;;;;;;;;;5074001;28;20443;-70
2023/09/11 06:46:09;;;;;;;16.40;12.60;;;;;;;;;;5074101;28;20444;-71
2023/09/11 06:48:35;;;;;;;11.80;10.80;;;;;;;;;;5073830;28;20448;-71
2023/09/11 06:51:02;;;;;;;12.53;11.43;;;;;;;;;;5073823;28;21021;-70
2023/09/11 06:53:29;;;;;;;11.30;10.30;;;;;;;;;;5073663;28;20542;-71
2023/09/11 06:55:58;;;;;;;13.13;12.03;;;;;;;;;;5073899;28;20534;-71
2023/09/11 06:58:25;;;;;;;13.20;11.90;;;;;;;;;;5073360;28;20483;-67
2023/09/11 07:00:51;;;;;;;12.67;11.57;;;;;;;;;;5073581;28;20447;-76
2023/09/11 07:03:19;;;;;;;12.40;11.10;;;;;;;;;;5073660;28;20538;-74
2023/09/11 07:05:50;;;;;;;11.77;10.77;;;;;;;;;;5073886;28;20505;-69
2023/09/11 07:08:17;;;;;;;15.20;10.53;;;;;;;;;;5073339;28;20526;-72
2023/09/11 07:10:49;;;;;;;13.07;10.23;;;;;;;;;;5073675;28;20517;-79
2023/09/11 07:13:17;;;;;;;11.23;10.07;;;;;;;;;;5073394;28;20971;-71
2023/09/11 07:15:44;;;;;;;10.90;9.80;;;;;;;;;;5073283;28;20539;-77
2023/09/11 07:18:11;;;;;;;16.30;10.63;;;;;;;;;;5073186;28;20486;-68
2023/09/11 07:20:38;;;;;;;14.43;10.37;;;;;;;;;;5073521;28;20553;-68
2023/09/11 07:23:05;;;;;;;10.67;9.67;;;;;;;;;;5073279;28;20444;-71
2023/09/11 07:25:32;;;;;;;10.60;9.57;;;;;;;;;;5073271;28;20534;-72
2023/09/11 07:27:59;;;;;;;10.43;9.50;;;;;;;;;;5073071;28;20471;-76
2023/09/11 07:30:28;;;;;;;10.60;9.50;;;;;;;;;;5073045;28;20539;-76
2023/09/11 07:32:56;;;;;;;12.07;9.10;;;;;;;;;;5073269;28;20424;-73
2023/09/11 07:35:23;;;;;;;9.57;8.67;;;;;;;;;;5073155;28;20450;-66
2023/09/11 07:37:50;;;;;;;12.23;9.07;;;;;;;;;;5073035;28;20467;-74
2023/09/11 07:40:17;;;;;;;11.83;10.40;;;;;;;;;;5073044;28;20447;-66
2023/09/11 07:42:44;;;;;;;10.77;9.80;;;;;;;;;;5073048;28;20451;-73
2023/09/11 07:45:11;;;;;;;10.20;9.30;;;;;;;;;;5073356;28;20443;-74
2023/09/11 07:47:39;;;;;;;11.83;8.87;;;;;;;;;;5073025;28;20473;-74
2023/09/11 07:50:06;;;;;;;9.07;8.37;;;;;;;;;;5073079;28;20530;-72
2023/09/11 07:52:35;;;;;;;13.70;9.20;;;;;;;;;;5072931;28;20534;-76
2023/09/11 07:55:02;;;;;;;9.33;8.43;;;;;;;;;;5072905;28;20450;-69
2023/09/11 07:57:30;;;;;;;9.10;7.83;;;;;;;;;;5072710;28;20467;-77
2023/09/11 07:59:57;;;;;;;11.70;9.10;;;;;;;;;;5072972;28;20478;-77
2023/09/11 08:02:24;;;;;;;9.70;8.50;;;;;;;;;;5072817;28;20447;-74
2023/09/11 08:04:52;;;;;;;9.63;8.77;;;;;;;;;;5072943;28;20874;-78
2023/09/11 08:07:19;;;;;;;8.63;7.83;;;;;;;;;;5072158;28;20538;-72
2023/09/11 08:09:46;;;;;;;10.17;9.27;;;;;;;;;;5072727;28;20493;-73
2023/09/11 08:12:13;;;;;;;8.70;7.87;;;;;;;;;;5072248;28;20451;-77
2023/09/11 08:14:40;;;;;;;8.67;7.87;;;;;;;;;;5072344;28;21018;-72
2023/09/11 08:17:07;;;;;;;9.20;8.40;;;;;;;;;;5072865;28;20454;-72
2023/09/11 08:19:34;;;;;;;8.53;7.77;;;;;;;;;;5072596;28;20534;-69
2023/09/11 08:22:03;;;;;;;9.77;7.30;;;;;;;;;;5072657;28;20534;-63
2023/09/11 08:24:30;;;;;;;7.73;7.13;;;;;;;;;;5072360;28;20541;-68
2023/09/11 08:26:57;;;;;;;8.30;7.60;;;;;;;;;;5072682;28;20454;-74
2023/09/11 08:29:24;;;;;;;7.60;6.90;;;;;;;;;;5072489;28;20475;-75
2023/09/11 08:31:51;;;;;;;7.43;6.73;;;;;;;;;;5072606;28;20542;-68
2023/09/11 08:34:18;;;;;;;10.27;8.00;;;;;;;;;;5072599;28;20436;-71
2023/09/11 08:36:44;;;;;;;7.80;6.13;;;;;;;;;;5072406;28;21048;-68
2023/09/11 08:39:13;;;;;;;6.00;5.50;;;;;;;;;;5072178;28;20475;-66
2023/09/11 08:41:40;;;;;;;7.57;6.97;;;;;;;;;;5072609;28;20538;-70
2023/09/11 08:44:07;;;;;;;7.33;6.83;;;;;;;;;;5072377;28;20439;-74
2023/09/11 08:46:35;;;;;;;7.20;6.70;;;;;;;;;;5072463;28;20439;-68
2023/09/11 08:49:03;;;;;;;8.30;6.33;;;;;;;;;;5072299;28;20886;-68
2023/09/11 08:51:34;;;;;;;6.23;5.73;;;;;;;;;;5072462;28;20443;-73
2023/09/11 08:54:02;;;;;;;6.53;6.03;;;;;;;;;;5072250;28;20914;-75
2023/09/11 08:56:30;;;;;;;7.27;6.67;;;;;;;;;;5072447;28;20443;-76
2023/09/11 08:58:59;;;;;;;7.30;6.70;;;;;;;;;;5072222;28;20577;-70
2023/09/11 09:01:26;;;;;;;7.03;6.33;;;;;;;;;;5072175;28;20483;-70
2023/09/11 09:03:53;;;;;;;6.43;5.93;;;;;;;;;;5072182;28;20534;-72
2023/09/11 09:06:20;;;;;;;6.30;5.80;;;;;;;;;;5072094;28;20444;-75
2023/09/11 09:08:47;;;;;;;7.20;6.60;;;;;;;;;;5072165;28;20443;-69
2023/09/11 09:11:15;;;;;;;7.03;5.73;;;;;;;;;;5072032;28;20534;-70
2023/09/11 09:13:43;;;;;;;6.90;6.40;;;;;;;;;;5072034;28;20538;-71
2023/09/11 09:16:10;;;;;;;9.73;7.40;;;;;;;;;;5071954;28;20454;-70
2023/09/11 09:18:37;;;;;;;7.70;6.10;;;;;;;;;;5074834;28;21080;-70
2023/09/11 09:21:07;;;;;;;7.97;6.97;;;;;;;;;;5075309;28;20447;-70
2023/09/11 09:23:35;;;;;;;7.20;5.97;;;;;;;;;;5075587;28;20454;-70
2023/09/11 09:26:06;;;;;;;7.13;6.57;;;;;;;;;;5075547;28;20454;-70
2023/09/11 09:28:33;;;;;;;6.97;6.37;;;;;;;;;;5075345;28;20498;-70
2023/09/11 09:31:02;;;;;;;7.43;6.83;;;;;;;;;;5075251;28;20447;-67
2023/09/11 09:33:29;;;;;;;7.20;6.10;;;;;;;;;;5075323;28;20480;-69
2023/09/11 09:35:56;;;;;;;15.53;7.50;;;;;;;;;;5075546;28;20454;-77
2023/09/11 09:38:23;;;;;;;7.47;6.77;;;;;;;;;;5075227;28;20467;-69
2023/09/11 09:40:51;;;;;;;7.80;7.20;;;;;;;;;;5075230;28;20447;-69
2023/09/11 09:43:19;;;;;;;6.20;5.70;;;;;;;;;;5075295;28;20444;-70
2023/09/11 09:45:47;;;;;;;6.40;5.90;;;;;;;;;;5075056;28;20451;-74
2023/09/11 09:48:16;;;;;;;6.13;5.73;;;;;;;;;;5075340;28;20455;-73
2023/09/11 09:50:51;;;;;;;7.90;5.83;;;;;;;;;;5075045;28;20943;-69
2023/09/11 09:53:22;;;;;;;6.60;6.10;;;;;;;;;;5075272;28;20482;-76
2023/09/11 09:55:49;;;;;;;5.73;5.20;;;;;;;;;;5074857;28;20449;-69
2023/09/11 09:58:15;;;;;;;6.87;5.63;;;;;;;;;;5074831;28;20787;-66
2023/09/11 10:00:43;;;;;;;7.77;6.13;;;;;;;;;;5074995;28;20475;-74
2023/09/11 10:03:11;;;;;;;6.43;5.80;;;;;;;;;;5073928;28;20450;-73
2023/09/11 10:05:41;;;;;;;6.23;5.77;;;;;;;;;;5073992;28;20500;-74
2023/09/11 10:08:08;;;;;;;6.17;5.63;;;;;;;;;;5074757;28;20459;-75
2023/09/11 10:10:35;;;;;;;6.63;5.40;;;;;;;;;;5074678;28;20930;-74
2023/09/11 10:13:06;;;;;;;5.70;5.20;;;;;;;;;;5074564;28;20445;-68
2023/09/11 10:15:34;;;;;;;6.47;5.87;;;;;;;;;;5074734;28;20501;-68
2023/09/11 10:18:02;;;;;;;9.83;5.30;;;;;;;;;;5074618;28;20479;-69
2023/09/11 10:20:29;;;;;;;7.57;5.70;;;;;;;;;;5074519;28;20479;-68
2023/09/11 10:22:58;;;;;;;6.13;5.73;;;;;;;;;;5074419;28;20535;-69
2023/09/11 10:25:25;;;;;;;11.00;6.00;;;;;;;;;;5074431;28;20537;-67
2023/09/11 10:27:57;;;;;;;6.43;5.73;;;;;;;;;;5074242;28;20559;-72
2023/09/11 10:30:26;;;;;;;6.30;5.77;;;;;;;;;;5073817;28;20450;-72
2023/09/11 10:32:59;;;;;;;5.27;4.77;;;;;;;;;;5074348;28;20453;-69
2023/09/11 10:35:26;;;;;;;6.13;5.50;;;;;;;;;;5074287;28;20450;-63
2023/09/11 10:37:56;;;;;;;8.27;6.00;;;;;;;;;;5074058;28;20680;-72
2023/09/11 10:40:25;;;;;;;6.17;5.63;;;;;;;;;;5074579;28;20451;-65
2023/09/11 10:42:52;;;;;;;5.80;5.30;;;;;;;;;;5074163;28;20530;-65
2023/09/11 10:45:28;;;;;;;7.47;5.20;;;;;;;;;;5074102;28;20538;-69
2023/09/11 10:47:55;;;;;;;10.00;6.33;;;;;;;;;;5073825;28;20443;-74
2023/09/11 10:50:24;;;;;;;9.23;5.53;;;;;;;;;;5073848;28;20447;-76
2023/09/11 10:52:53;;;;;;;7.27;5.83;;;;;;;;;;5073893;28;20954;-77
2023/09/11 10:55:22;;;;;;;6.03;5.60;;;;;;;;;;5073963;28;20534;-70
2023/09/11 10:57:51;;;;;;;7.60;6.10;;;;;;;;;;5073887;28;20467;-72
2023/09/11 11:00:18;;;;;;;6.17;5.60;;;;;;;;;;5073766;28;20487;-73
2023/09/11 11:02:45;;;;;;;8.03;5.80;;;;;;;;;;5073564;28;20810;-72
2023/09/11 11:05:15;;;;;;;5.80;5.30;;;;;;;;;;5073536;28;20519;-65
2023/09/11 11:07:42;;;;;;;6.23;5.13;;;;;;;;;;5073768;28;20792;-68
2023/09/11 11:10:12;;;;;;;9.93;5.43;;;;;;;;;;5073526;28;20443;-73
2023/09/11 11:12:40;;;;;;;7.20;5.60;;;;;;;;;;5073623;28;20454;-70
2023/09/11 11:15:24;;;;;;;7.13;5.47;;;;;;;;;;5073491;28;20467;-73
2023/09/11 11:18:06;;;;;;;9.07;5.60;;;;;;;;;;5073670;28;20572;-80
2023/09/11 11:20:33;;;;;;;6.07;5.57;;;;;;;;;;5073475;28;20494;-73
2023/09/11 11:23:07;;;;;;;9.57;5.10;;;;;;;;;;5073422;28;20538;-70
2023/09/11 11:25:34;;;;;;;6.30;5.70;;;;;;;;;;5073285;28;20515;-68
2023/09/11 11:28:02;;;;;;;10.40;5.70;;;;;;;;;;5073043;28;20514;-72
2023/09/11 11:30:32;;;;;;;10.03;5.40;;;;;;;;;;5073328;28;20534;-71
2023/09/11 11:32:59;;;;;;;5.30;4.63;;;;;;;;;;5073073;28;20530;-71
2023/09/11 11:35:26;;;;;;;8.17;5.00;;;;;;;;;;5073240;28;20443;-69
2023/09/11 11:37:53;;;;;;;5.80;5.30;;;;;;;;;;5073060;28;20522;-71
2023/09/11 11:40:21;;;;;;;5.77;4.50;;;;;;;;;;5073013;28;20581;-80
2023/09/11 11:42:48;;;;;;;10.37;5.67;;;;;;;;;;5073248;28;20450;-69
2023/09/11 11:45:15;;;;;;;8.27;4.90;;;;;;;;;;5073116;28;20449;-69
2023/09/11 11:47:44;;;;;;;6.30;5.70;;;;;;;;;;5072949;28;20550;-71
2023/09/11 11:50:11;;;;;;;6.80;5.40;;;;;;;;;;5072908;28;20538;-73
2023/09/11 11:52:38;;;;;;;11.80;6.30;;;;;;;;;;5072786;28;20881;-76
2023/09/11 11:55:18;;;;;;;6.00;5.40;;;;;;;;;;5072710;28;20526;-77
2023/09/11 11:57:45;;;;;;;12.60;5.37;;;;;;;;;;5073014;28;20446;-65
2023/09/11 12:00:13;;;;;;;6.10;5.50;;;;;;;;;;5072880;28;20540;-73
2023/09/11 12:02:40;;;;;;;5.17;4.67;;;;;;;;;;5072971;28;20474;-69
2023/09/11 12:05:12;;;;;;;7.43;4.83;;;;;;;;;;5072848;28;20448;-68
2023/09/11 12:07:39;;;;;;;10.03;4.60;;;;;;;;;;5072730;28;20479;-69
2023/09/11 12:10:09;;;;;;;8.10;5.60;;;;;;;;;;5072859;28;20533;-71
2023/09/11 12:12:38;;;;;;;5.13;4.37;;;;;;;;;;5072790;28;20453;-67
2023/09/11 12:15:05;;;;;;;5.03;4.60;;;;;;;;;;5072701;28;20448;-66
2023/09/11 12:17:32;;;;;;;5.67;5.00;;;;;;;;;;5072698;28;20448;-73
2023/09/11 12:20:14;;;;;;;8.70;4.90;;;;;;;;;;5072546;28;20575;-77
2023/09/11 12:22:44;;;;;;;10.53;5.17;;;;;;;;;;5071079;28;21013;-76
2023/09/11 12:25:11;;;;;;;6.07;5.30;;;;;;;;;;5072846;28;20447;-78
2023/09/11 12:27:38;;;;;;;6.63;5.27;;;;;;;;;;5072738;28;20467;-81
2023/09/11 12:30:06;;;;;;;7.97;4.70;;;;;;;;;;5072616;28;20935;-75
2023/09/11 12:32:34;;;;;;;8.63;4.93;;;;;;;;;;5072553;28;20443;-73
2023/09/11 12:35:01;;;;;;;7.63;5.50;;;;;;;;;;5073144;28;20454;-77
2023/09/11 12:37:28;;;;;;;8.77;6.17;;;;;;;;;;5073539;28;20860;-77
2023/09/11 12:39:57;;;;;;;11.00;5.40;;;;;;;;;;5072594;28;20482;-73
2023/09/11 12:42:24;;;;;;;6.87;5.23;;;;;;;;;;5072505;28;20838;-65
2023/09/11 12:44:51;;;;;;;11.33;5.23;;;;;;;;;;5072232;28;20490;-64
2023/09/11 12:47:18;;;;;;;11.00;5.20;;;;;;;;;;5072354;28;21011;-66
2023/09/11 12:49:45;;;;;;;10.30;5.53;;;;;;;;;;5072400;28;20540;-68
2023/09/11 12:52:13;;;;;;;9.10;5.90;;;;;;;;;;5073556;28;20537;-77
2023/09/11 12:54:41;;;;;;;8.93;5.63;;;;;;;;;;5076050;28;20443;-77
2023/09/11 12:57:09;;;;;;;11.10;6.90;;;;;;;;;;5076237;28;20478;-74
2023/09/11 12:59:36;;;;;;;9.53;5.30;;;;;;;;;;5075920;28;20481;-75
2023/09/11 13:02:06;;;;;;;12.93;6.33;;;;;;;;;;5076280;28;20443;-72
2023/09/11 13:04:33;;;;;;;6.13;5.57;;;;;;;;;;5076133;28;20871;-75
2023/09/11 13:07:00;;;;;;;7.57;6.03;;;;;;;;;;5076042;28;20451;-73
2023/09/11 13:09:27;;;;;;;9.83;5.63;;;;;;;;;;5075972;28;20450;-70
2023/09/11 13:11:54;;;;;;;7.73;5.00;;;;;;;;;;5075872;28;20453;-73
2023/09/11 13:14:22;;;;;;;10.13;5.50;;;;;;;;;;5075644;28;20445;-66
2023/09/11 13:16:49;;;;;;;11.30;5.43;;;;;;;;;;5075941;28;20485;-69
2023/09/11 13:19:17;;;;;;;7.00;5.50;;;;;;;;;;5075635;28;20475;-69
2023/09/11 13:21:44;;;;;;;8.10;5.37;;;;;;;;;;5075645;28;20448;-71
2023/09/11 13:24:10;;;;;;;7.20;5.80;;;;;;;;;;5075632;28;20540;-73
2023/09/11 13:26:38;;;;;;;12.43;5.90;;;;;;;;;;5075465;28;20474;-70
2023/09/11 13:29:06;;;;;;;7.57;6.10;;;;;;;;;;5075226;28;20560;-70
2023/09/11 13:31:35;;;;;;;8.60;5.77;;;;;;;;;;5075131;28;20436;-70
2023/09/11 13:34:02;;;;;;;5.50;5.00;;;;;;;;;;5074931;28;20958;-71
2023/09/11 13:36:29;;;;;;;13.73;6.00;;;;;;;;;;5074991;28;20439;-71
2023/09/11 13:38:55;;;;;;;7.50;5.87;;;;;;;;;;5074892;28;20613;-71
2023/09/11 13:41:22;;;;;;;6.53;5.83;;;;;;;;;;5074813;28;20436;-70
2023/09/11 13:43:50;;;;;;;9.60;5.67;;;;;;;;;;5074920;28;20439;-71
2023/09/11 13:46:17;;;;;;;10.43;6.00;;;;;;;;;;5074914;28;20530;-70
2023/09/11 13:48:45;;;;;;;7.40;5.50;;;;;;;;;;5074726;28;20938;-72
2023/09/11 13:51:12;;;;;;;8.40;5.27;;;;;;;;;;5074349;28;20443;-72
2023/09/11 13:53:39;;;;;;;11.43;5.80;;;;;;;;;;5074404;28;20946;-72
2023/09/11 13:56:06;;;;;;;9.23;5.10;;;;;;;;;;5075005;28;20534;-72
2023/09/11 13:58:33;;;;;;;11.20;4.93;;;;;;;;;;5074976;28;20443;-72
2023/09/11 14:01:00;;;;;;;9.63;4.90;;;;;;;;;;5075067;28;20490;-72
2023/09/11 14:03:27;;;;;;;8.67;5.53;;;;;;;;;;5073401;28;20964;-72
2023/09/11 14:05:55;;;;;;;11.20;5.50;;;;;;;;;;5074813;28;20444;-72
2023/09/11 14:08:22;;;;;;;15.87;4.80;;;;;;;;;;5074779;28;20450;-72
2023/09/11 14:10:49;;;;;;;7.97;4.87;;;;;;;;;;5074990;28;20870;-72
2023/09/11 14:13:19;;;;;;;7.93;4.97;;;;;;;;;;5074889;28;20526;-72
2023/09/11 14:15:46;;;;;;;10.90;5.10;;;;;;;;;;5074768;28;20443;-72
2023/09/11 14:18:13;;;;;;;7.70;4.70;;;;;;;;;;5074706;28;20536;-72
2023/09/11 14:20:40;;;;;;;6.80;5.60;;;;;;;;;;5074171;28;20510;-72
2023/09/11 14:23:08;;;;;;;7.00;5.10;;;;;;;;;;5074489;28;20992;-72
2023/09/11 14:25:35;;;;;;;8.20;5.20;;;;;;;;;;5074668;28;20448;-72
2023/09/11 14:28:03;;;;;;;5.80;5.20;;;;;;;;;;5074091;28;20507;-72
2023/09/11 14:30:30;;;;;;;11.60;5.07;;;;;;;;;;5074346;28;20482;-72
2023/09/11 14:32:57;;;;;;;10.70;4.83;;;;;;;;;;5074403;28;20443;-72